sensor_id;sensor_type;location;lat;lon;timestamp;P1;durP1;ratioP1;P2;durP2;ratioP2
32347;SDS011;18821;44.800;10.326;2023-03-21T00:01:11;40.22;;;24.60;;
32347;SDS011;18821;44.800;10.326;2023-03-21T00:03:38;38.80;;;24.42;;
32347;SDS011;18821;44.800;10.326;2023-03-21T00:06:08;42.33;;;23.60;;
32347;SDS011;18821;44.800;10.326;2023-03-21T00:08:35;40.53;;;22.92;;
32347;SDS011;18821;44.800;10.326;2023-03-21T00:11:03;39.78;;;23.58;;
32347;SDS011;18821;44.800;10.326;2023-03-21T00:13:31;42.97;;;25.05;;
32347;SDS011;18821;44.800;10.326;2023-03-21T00:18:31;36.45;;;23.30;;
32347;SDS011;18821;44.800;10.326;2023-03-21T00:20:57;39.33;;;24.15;;
32347;SDS011;18821;44.800;10.326;2023-03-21T00:23:25;40.60;;;25.10;;
32347;SDS011;18821;44.800;10.326;2023-03-21T00:25:52;37.30;;;24.17;;
32347;SDS011;18821;44.800;10.326;2023-03-21T00:28:18;36.88;;;23.95;;
32347;SDS011;18821;44.800;10.326;2023-03-21T00:30:47;38.08;;;23.17;;
32347;SDS011;18821;44.800;10.326;2023-03-21T00:33:13;40.42;;;23.52;;
32347;SDS011;18821;44.800;10.326;2023-03-21T00:35:40;39.15;;;23.98;;
32347;SDS011;18821;44.800;10.326;2023-03-21T00:38:12;36.50;;;22.77;;
32347;SDS011;18821;44.800;10.326;2023-03-21T00:40:39;38.83;;;23.63;;
32347;SDS011;18821;44.800;10.326;2023-03-21T00:43:08;39.50;;;24.55;;
32347;SDS011;18821;44.800;10.326;2023-03-21T00:45:34;37.47;;;23.33;;
32347;SDS011;18821;44.800;10.326;2023-03-21T00:48:00;40.20;;;24.88;;
32347;SDS011;18821;44.800;10.326;2023-03-21T00:50:27;40.20;;;24.40;;
32347;SDS011;18821;44.800;10.326;2023-03-21T00:52:53;39.78;;;24.00;;
32347;SDS011;18821;44.800;10.326;2023-03-21T00:55:19;40.20;;;25.15;;
32347;SDS011;18821;44.800;10.326;2023-03-21T00:57:45;42.28;;;24.70;;
32347;SDS011;18821;44.800;10.326;2023-03-21T01:00:12;42.45;;;24.85;;
32347;SDS011;18821;44.800;10.326;2023-03-21T01:02:39;40.67;;;24.00;;
32347;SDS011;18821;44.800;10.326;2023-03-21T01:05:30;40.85;;;23.33;;
32347;SDS011;18821;44.800;10.326;2023-03-21T01:08:18;42.08;;;24.40;;
32347;SDS011;18821;44.800;10.326;2023-03-21T01:10:46;40.25;;;24.67;;
32347;SDS011;18821;44.800;10.326;2023-03-21T01:13:14;40.00;;;23.58;;
32347;SDS011;18821;44.800;10.326;2023-03-21T01:15:45;39.05;;;24.17;;
32347;SDS011;18821;44.800;10.326;2023-03-21T01:18:16;38.75;;;22.98;;
32347;SDS011;18821;44.800;10.326;2023-03-21T01:20:44;39.88;;;24.13;;
32347;SDS011;18821;44.800;10.326;2023-03-21T01:23:12;38.50;;;22.73;;
32347;SDS011;18821;44.800;10.326;2023-03-21T01:25:39;44.55;;;25.15;;
32347;SDS011;18821;44.800;10.326;2023-03-21T01:28:06;40.17;;;23.92;;
32347;SDS011;18821;44.800;10.326;2023-03-21T01:30:32;37.65;;;23.17;;
32347;SDS011;18821;44.800;10.326;2023-03-21T01:33:01;35.88;;;23.45;;
32347;SDS011;18821;44.800;10.326;2023-03-21T01:35:27;38.38;;;23.98;;
32347;SDS011;18821;44.800;10.326;2023-03-21T01:37:53;41.67;;;24.98;;
32347;SDS011;18821;44.800;10.326;2023-03-21T01:40:20;43.90;;;25.42;;
32347;SDS011;18821;44.800;10.326;2023-03-21T01:42:51;37.78;;;24.20;;
32347;SDS011;18821;44.800;10.326;2023-03-21T01:48:31;37.15;;;24.17;;
32347;SDS011;18821;44.800;10.326;2023-03-21T01:50:58;38.78;;;24.25;;
32347;SDS011;18821;44.800;10.326;2023-03-21T01:53:37;36.75;;;22.83;;
32347;SDS011;18821;44.800;10.326;2023-03-21T01:56:22;39.83;;;25.40;;
32347;SDS011;18821;44.800;10.326;2023-03-21T01:59:01;38.30;;;23.35;;
32347;SDS011;18821;44.800;10.326;2023-03-21T02:01:51;34.38;;;23.25;;
32347;SDS011;18821;44.800;10.326;2023-03-21T02:04:22;40.65;;;24.48;;
32347;SDS011;18821;44.800;10.326;2023-03-21T02:07:19;37.30;;;23.38;;
32347;SDS011;18821;44.800;10.326;2023-03-21T02:10:03;35.85;;;22.10;;
32347;SDS011;18821;44.800;10.326;2023-03-21T02:12:32;37.35;;;23.45;;
32347;SDS011;18821;44.800;10.326;2023-03-21T02:15:00;38.50;;;23.92;;
32347;SDS011;18821;44.800;10.326;2023-03-21T02:18:00;38.65;;;24.13;;
32347;SDS011;18821;44.800;10.326;2023-03-21T02:28:55;36.63;;;22.88;;
32347;SDS011;18821;44.800;10.326;2023-03-21T02:43:21;36.67;;;22.38;;
32347;SDS011;18821;44.800;10.326;2023-03-21T02:45:39;46.15;;;24.67;;
32347;SDS011;18821;44.800;10.326;2023-03-21T02:48:12;39.70;;;24.15;;
32347;SDS011;18821;44.800;10.326;2023-03-21T02:50:50;44.58;;;24.10;;
32347;SDS011;18821;44.800;10.326;2023-03-21T02:53:19;39.47;;;24.35;;
32347;SDS011;18821;44.800;10.326;2023-03-21T02:55:49;40.15;;;23.27;;
32347;SDS011;18821;44.800;10.326;2023-03-21T02:58:20;39.95;;;25.58;;
32347;SDS011;18821;44.800;10.326;2023-03-21T03:00:54;40.47;;;23.40;;
32347;SDS011;18821;44.800;10.326;2023-03-21T03:03:31;47.90;;;23.88;;
32347;SDS011;18821;44.800;10.326;2023-03-21T03:06:00;41.97;;;23.60;;
32347;SDS011;18821;44.800;10.326;2023-03-21T03:13:37;37.60;;;22.98;;
32347;SDS011;18821;44.800;10.326;2023-03-21T03:18:54;42.55;;;24.58;;
32347;SDS011;18821;44.800;10.326;2023-03-21T03:26:49;38.50;;;24.27;;
32347;SDS011;18821;44.800;10.326;2023-03-21T03:29:24;33.55;;;22.08;;
32347;SDS011;18821;44.800;10.326;2023-03-21T03:31:55;40.55;;;23.58;;
32347;SDS011;18821;44.800;10.326;2023-03-21T03:34:29;40.42;;;24.23;;
32347;SDS011;18821;44.800;10.326;2023-03-21T03:37:02;42.67;;;22.83;;
32347;SDS011;18821;44.800;10.326;2023-03-21T03:39:37;36.53;;;22.38;;
32347;SDS011;18821;44.800;10.326;2023-03-21T03:42:13;34.67;;;22.85;;
32347;SDS011;18821;44.800;10.326;2023-03-21T03:44:57;34.83;;;22.48;;
32347;SDS011;18821;44.800;10.326;2023-03-21T03:47:28;39.35;;;23.58;;
32347;SDS011;18821;44.800;10.326;2023-03-21T03:50:19;37.08;;;24.35;;
32347;SDS011;18821;44.800;10.326;2023-03-21T03:53:21;38.90;;;22.77;;
32347;SDS011;18821;44.800;10.326;2023-03-21T03:56:09;36.40;;;22.13;;
32347;SDS011;18821;44.800;10.326;2023-03-21T03:58:38;34.75;;;22.63;;
32347;SDS011;18821;44.800;10.326;2023-03-21T04:01:05;38.00;;;22.95;;
32347;SDS011;18821;44.800;10.326;2023-03-21T04:03:32;36.75;;;22.80;;
32347;SDS011;18821;44.800;10.326;2023-03-21T04:06:00;38.00;;;23.25;;
32347;SDS011;18821;44.800;10.326;2023-03-21T04:08:26;38.22;;;22.55;;
32347;SDS011;18821;44.800;10.326;2023-03-21T04:10:55;38.47;;;23.23;;
32347;SDS011;18821;44.800;10.326;2023-03-21T04:13:22;34.78;;;22.42;;
32347;SDS011;18821;44.800;10.326;2023-03-21T04:16:04;38.20;;;23.08;;
32347;SDS011;18821;44.800;10.326;2023-03-21T04:18:30;39.25;;;24.65;;
32347;SDS011;18821;44.800;10.326;2023-03-21T04:20:57;38.42;;;23.38;;
32347;SDS011;18821;44.800;10.326;2023-03-21T04:23:27;40.13;;;24.33;;
32347;SDS011;18821;44.800;10.326;2023-03-21T04:25:54;35.75;;;22.88;;
32347;SDS011;18821;44.800;10.326;2023-03-21T04:28:20;37.58;;;23.10;;
32347;SDS011;18821;44.800;10.326;2023-03-21T04:31:09;37.25;;;22.25;;
32347;SDS011;18821;44.800;10.326;2023-03-21T04:33:44;36.08;;;21.83;;
32347;SDS011;18821;44.800;10.326;2023-03-21T04:36:12;36.80;;;23.55;;
32347;SDS011;18821;44.800;10.326;2023-03-21T04:38:52;42.63;;;24.25;;
32347;SDS011;18821;44.800;10.326;2023-03-21T04:41:19;36.20;;;21.35;;
32347;SDS011;18821;44.800;10.326;2023-03-21T04:43:47;39.15;;;22.20;;
32347;SDS011;18821;44.800;10.326;2023-03-21T04:46:13;37.08;;;22.27;;
32347;SDS011;18821;44.800;10.326;2023-03-21T04:48:40;38.20;;;24.17;;
32347;SDS011;18821;44.800;10.326;2023-03-21T04:51:06;36.42;;;21.25;;
32347;SDS011;18821;44.800;10.326;2023-03-21T04:53:32;37.75;;;21.85;;
32347;SDS011;18821;44.800;10.326;2023-03-21T04:55:59;40.58;;;22.63;;
32347;SDS011;18821;44.800;10.326;2023-03-21T04:58:25;35.17;;;21.13;;
32347;SDS011;18821;44.800;10.326;2023-03-21T05:00:51;40.53;;;23.27;;
32347;SDS011;18821;44.800;10.326;2023-03-21T05:03:17;39.33;;;22.40;;
32347;SDS011;18821;44.800;10.326;2023-03-21T05:05:47;36.53;;;22.60;;
32347;SDS011;18821;44.800;10.326;2023-03-21T05:08:13;38.92;;;22.85;;
32347;SDS011;18821;44.800;10.326;2023-03-21T05:10:42;38.67;;;21.70;;
32347;SDS011;18821;44.800;10.326;2023-03-21T05:13:08;35.75;;;22.88;;
32347;SDS011;18821;44.800;10.326;2023-03-21T05:15:34;42.10;;;22.67;;
32347;SDS011;18821;44.800;10.326;2023-03-21T05:18:00;42.30;;;23.33;;
32347;SDS011;18821;44.800;10.326;2023-03-21T05:20:38;36.15;;;22.40;;
32347;SDS011;18821;44.800;10.326;2023-03-21T05:23:10;39.30;;;22.80;;
32347;SDS011;18821;44.800;10.326;2023-03-21T05:25:37;37.85;;;22.13;;
32347;SDS011;18821;44.800;10.326;2023-03-21T05:28:12;40.75;;;22.75;;
32347;SDS011;18821;44.800;10.326;2023-03-21T05:30:43;48.05;;;23.67;;
32347;SDS011;18821;44.800;10.326;2023-03-21T05:33:10;40.33;;;22.67;;
32347;SDS011;18821;44.800;10.326;2023-03-21T05:35:37;36.38;;;22.77;;
32347;SDS011;18821;44.800;10.326;2023-03-21T05:38:07;38.28;;;23.40;;
32347;SDS011;18821;44.800;10.326;2023-03-21T05:40:47;37.65;;;23.83;;
32347;SDS011;18821;44.800;10.326;2023-03-21T05:43:15;37.42;;;22.00;;
32347;SDS011;18821;44.800;10.326;2023-03-21T05:45:41;38.92;;;23.08;;
32347;SDS011;18821;44.800;10.326;2023-03-21T05:48:08;39.65;;;23.60;;
32347;SDS011;18821;44.800;10.326;2023-03-21T05:50:48;39.85;;;21.48;;
32347;SDS011;18821;44.800;10.326;2023-03-21T05:53:17;34.25;;;21.70;;
32347;SDS011;18821;44.800;10.326;2023-03-21T05:55:43;40.10;;;21.08;;
32347;SDS011;18821;44.800;10.326;2023-03-21T05:58:19;33.45;;;20.75;;
32347;SDS011;18821;44.800;10.326;2023-03-21T06:00:48;38.55;;;20.48;;
32347;SDS011;18821;44.800;10.326;2023-03-21T06:03:23;34.25;;;21.20;;
32347;SDS011;18821;44.800;10.326;2023-03-21T06:05:59;37.40;;;21.42;;
32347;SDS011;18821;44.800;10.326;2023-03-21T06:08:32;33.78;;;19.10;;
32347;SDS011;18821;44.800;10.326;2023-03-21T06:10:59;34.60;;;21.23;;
32347;SDS011;18821;44.800;10.326;2023-03-21T06:13:26;31.83;;;19.20;;
32347;SDS011;18821;44.800;10.326;2023-03-21T06:15:52;31.05;;;19.35;;
32347;SDS011;18821;44.800;10.326;2023-03-21T06:18:22;29.27;;;19.38;;
32347;SDS011;18821;44.800;10.326;2023-03-21T06:20:54;28.40;;;17.63;;
32347;SDS011;18821;44.800;10.326;2023-03-21T06:23:22;29.35;;;18.50;;
32347;SDS011;18821;44.800;10.326;2023-03-21T06:25:48;28.88;;;17.38;;
32347;SDS011;18821;44.800;10.326;2023-03-21T06:28:14;28.58;;;16.90;;
32347;SDS011;18821;44.800;10.326;2023-03-21T06:30:40;29.70;;;17.50;;
32347;SDS011;18821;44.800;10.326;2023-03-21T06:33:13;24.25;;;17.10;;
32347;SDS011;18821;44.800;10.326;2023-03-21T06:35:39;28.48;;;19.23;;
32347;SDS011;18821;44.800;10.326;2023-03-21T06:38:05;28.98;;;18.42;;
32347;SDS011;18821;44.800;10.326;2023-03-21T06:40:33;36.00;;;18.05;;
32347;SDS011;18821;44.800;10.326;2023-03-21T06:42:59;32.00;;;18.23;;
32347;SDS011;18821;44.800;10.326;2023-03-21T06:45:25;27.15;;;17.25;;
32347;SDS011;18821;44.800;10.326;2023-03-21T06:47:52;27.13;;;16.40;;
32347;SDS011;18821;44.800;10.326;2023-03-21T06:50:43;31.80;;;16.50;;
32347;SDS011;18821;44.800;10.326;2023-03-21T06:53:12;28.98;;;17.85;;
32347;SDS011;18821;44.800;10.326;2023-03-21T06:56:01;32.08;;;16.88;;
32347;SDS011;18821;44.800;10.326;2023-03-21T06:58:30;28.95;;;18.20;;
32347;SDS011;18821;44.800;10.326;2023-03-21T07:01:00;26.00;;;16.58;;
32347;SDS011;18821;44.800;10.326;2023-03-21T07:03:28;35.50;;;15.65;;
32347;SDS011;18821;44.800;10.326;2023-03-21T07:06:03;25.38;;;16.35;;
32347;SDS011;18821;44.800;10.326;2023-03-21T07:08:37;29.52;;;17.35;;
32347;SDS011;18821;44.800;10.326;2023-03-21T07:11:03;25.83;;;16.50;;
32347;SDS011;18821;44.800;10.326;2023-03-21T07:13:30;29.70;;;17.15;;
32347;SDS011;18821;44.800;10.326;2023-03-21T07:16:02;27.55;;;18.05;;
32347;SDS011;18821;44.800;10.326;2023-03-21T07:18:31;26.55;;;16.13;;
32347;SDS011;18821;44.800;10.326;2023-03-21T07:20:57;28.75;;;16.83;;
32347;SDS011;18821;44.800;10.326;2023-03-21T07:23:24;29.83;;;18.02;;
32347;SDS011;18821;44.800;10.326;2023-03-21T07:25:50;26.15;;;17.85;;
32347;SDS011;18821;44.800;10.326;2023-03-21T07:28:17;27.98;;;17.92;;
32347;SDS011;18821;44.800;10.326;2023-03-21T07:30:44;32.35;;;20.20;;
32347;SDS011;18821;44.800;10.326;2023-03-21T07:33:15;26.05;;;16.92;;
32347;SDS011;18821;44.800;10.326;2023-03-21T07:35:42;29.33;;;17.63;;
32347;SDS011;18821;44.800;10.326;2023-03-21T07:38:08;33.28;;;18.38;;
32347;SDS011;18821;44.800;10.326;2023-03-21T07:40:34;28.60;;;17.30;;
32347;SDS011;18821;44.800;10.326;2023-03-21T07:43:00;25.95;;;15.93;;
32347;SDS011;18821;44.800;10.326;2023-03-21T07:45:28;27.30;;;16.75;;
32347;SDS011;18821;44.800;10.326;2023-03-21T07:47:54;31.98;;;18.58;;
32347;SDS011;18821;44.800;10.326;2023-03-21T07:50:21;33.40;;;18.05;;
32347;SDS011;18821;44.800;10.326;2023-03-21T07:52:47;29.77;;;17.90;;
32347;SDS011;18821;44.800;10.326;2023-03-21T07:55:13;27.20;;;18.02;;
32347;SDS011;18821;44.800;10.326;2023-03-21T07:57:41;28.05;;;17.38;;
32347;SDS011;18821;44.800;10.326;2023-03-21T08:00:07;46.22;;;22.55;;
32347;SDS011;18821;44.800;10.326;2023-03-21T08:02:42;26.23;;;16.30;;
32347;SDS011;18821;44.800;10.326;2023-03-21T08:05:08;29.63;;;17.40;;
32347;SDS011;18821;44.800;10.326;2023-03-21T08:07:35;31.15;;;20.15;;
32347;SDS011;18821;44.800;10.326;2023-03-21T08:10:01;27.00;;;17.95;;
32347;SDS011;18821;44.800;10.326;2023-03-21T08:12:27;33.90;;;19.27;;
32347;SDS011;18821;44.800;10.326;2023-03-21T08:14:53;31.58;;;20.05;;
32347;SDS011;18821;44.800;10.326;2023-03-21T08:17:19;35.95;;;20.50;;
32347;SDS011;18821;44.800;10.326;2023-03-21T08:19:45;36.95;;;20.55;;
32347;SDS011;18821;44.800;10.326;2023-03-21T08:22:11;34.05;;;20.50;;
32347;SDS011;18821;44.800;10.326;2023-03-21T08:24:37;35.45;;;20.63;;
32347;SDS011;18821;44.800;10.326;2023-03-21T08:27:03;33.28;;;22.27;;
32347;SDS011;18821;44.800;10.326;2023-03-21T08:29:30;40.47;;;23.17;;
32347;SDS011;18821;44.800;10.326;2023-03-21T08:31:56;39.40;;;24.77;;
32347;SDS011;18821;44.800;10.326;2023-03-21T08:34:22;45.70;;;25.10;;
32347;SDS011;18821;44.800;10.326;2023-03-21T08:36:48;38.63;;;23.63;;
32347;SDS011;18821;44.800;10.326;2023-03-21T08:39:14;34.35;;;23.17;;
32347;SDS011;18821;44.800;10.326;2023-03-21T08:41:40;35.33;;;23.13;;
32347;SDS011;18821;44.800;10.326;2023-03-21T08:44:06;42.22;;;24.67;;
32347;SDS011;18821;44.800;10.326;2023-03-21T08:46:32;40.35;;;24.75;;
32347;SDS011;18821;44.800;10.326;2023-03-21T08:48:58;43.90;;;26.60;;
32347;SDS011;18821;44.800;10.326;2023-03-21T08:51:24;47.60;;;26.27;;
32347;SDS011;18821;44.800;10.326;2023-03-21T08:53:50;45.53;;;28.60;;
32347;SDS011;18821;44.800;10.326;2023-03-21T08:56:16;52.47;;;28.75;;
32347;SDS011;18821;44.800;10.326;2023-03-21T08:58:42;53.33;;;27.70;;
32347;SDS011;18821;44.800;10.326;2023-03-21T09:01:09;43.80;;;26.45;;
32347;SDS011;18821;44.800;10.326;2023-03-21T09:03:36;48.58;;;28.95;;
32347;SDS011;18821;44.800;10.326;2023-03-21T09:06:03;46.30;;;28.52;;
32347;SDS011;18821;44.800;10.326;2023-03-21T09:08:29;49.63;;;28.55;;
32347;SDS011;18821;44.800;10.326;2023-03-21T09:10:55;43.05;;;28.30;;
32347;SDS011;18821;44.800;10.326;2023-03-21T09:13:21;47.45;;;30.10;;
32347;SDS011;18821;44.800;10.326;2023-03-21T09:15:48;46.00;;;29.52;;
32347;SDS011;18821;44.800;10.326;2023-03-21T09:18:15;46.70;;;29.60;;
32347;SDS011;18821;44.800;10.326;2023-03-21T09:20:42;42.13;;;29.38;;
32347;SDS011;18821;44.800;10.326;2023-03-21T09:23:11;46.53;;;28.80;;
32347;SDS011;18821;44.800;10.326;2023-03-21T09:25:40;42.58;;;28.15;;
32347;SDS011;18821;44.800;10.326;2023-03-21T09:28:06;49.63;;;29.67;;
32347;SDS011;18821;44.800;10.326;2023-03-21T09:30:33;44.20;;;28.73;;
32347;SDS011;18821;44.800;10.326;2023-03-21T09:33:01;45.97;;;29.90;;
32347;SDS011;18821;44.800;10.326;2023-03-21T09:35:30;51.95;;;29.88;;
32347;SDS011;18821;44.800;10.326;2023-03-21T09:37:56;50.08;;;30.08;;
32347;SDS011;18821;44.800;10.326;2023-03-21T09:40:30;42.35;;;30.98;;
32347;SDS011;18821;44.800;10.326;2023-03-21T09:45:46;53.72;;;33.50;;
32347;SDS011;18821;44.800;10.326;2023-03-21T09:51:16;51.95;;;32.13;;
32347;SDS011;18821;44.800;10.326;2023-03-21T09:53:43;54.10;;;33.42;;
32347;SDS011;18821;44.800;10.326;2023-03-21T09:56:13;50.58;;;33.55;;
32347;SDS011;18821;44.800;10.326;2023-03-21T09:58:45;62.63;;;35.05;;
32347;SDS011;18821;44.800;10.326;2023-03-21T10:01:21;53.47;;;35.88;;
32347;SDS011;18821;44.800;10.326;2023-03-21T10:03:59;50.40;;;33.28;;
32347;SDS011;18821;44.800;10.326;2023-03-21T10:06:29;51.92;;;34.72;;
32347;SDS011;18821;44.800;10.326;2023-03-21T10:09:00;54.30;;;35.38;;
32347;SDS011;18821;44.800;10.326;2023-03-21T10:11:45;52.58;;;36.08;;
32347;SDS011;18821;44.800;10.326;2023-03-21T10:16:44;51.97;;;34.08;;
32347;SDS011;18821;44.800;10.326;2023-03-21T10:19:14;51.95;;;32.97;;
32347;SDS011;18821;44.800;10.326;2023-03-21T10:21:43;50.83;;;34.13;;
32347;SDS011;18821;44.800;10.326;2023-03-21T10:24:13;48.85;;;33.35;;
32347;SDS011;18821;44.800;10.326;2023-03-21T10:26:43;48.60;;;32.78;;
32347;SDS011;18821;44.800;10.326;2023-03-21T10:29:14;54.58;;;34.13;;
32347;SDS011;18821;44.800;10.326;2023-03-21T10:31:43;46.20;;;32.08;;
32347;SDS011;18821;44.800;10.326;2023-03-21T10:36:48;51.90;;;30.30;;
32347;SDS011;18821;44.800;10.326;2023-03-21T10:39:31;45.45;;;30.45;;
32347;SDS011;18821;44.800;10.326;2023-03-21T10:42:02;43.88;;;29.92;;
32347;SDS011;18821;44.800;10.326;2023-03-21T10:44:32;47.30;;;32.17;;
32347;SDS011;18821;44.800;10.326;2023-03-21T10:47:03;47.33;;;31.35;;
32347;SDS011;18821;44.800;10.326;2023-03-21T10:49:37;44.58;;;29.85;;
32347;SDS011;18821;44.800;10.326;2023-03-21T10:52:05;48.38;;;31.50;;
32347;SDS011;18821;44.800;10.326;2023-03-21T10:54:35;53.00;;;32.40;;
32347;SDS011;18821;44.800;10.326;2023-03-21T10:57:08;48.22;;;32.58;;
32347;SDS011;18821;44.800;10.326;2023-03-21T11:02:25;43.72;;;30.77;;
32347;SDS011;18821;44.800;10.326;2023-03-21T11:04:56;49.08;;;31.17;;
32347;SDS011;18821;44.800;10.326;2023-03-21T11:07:30;43.22;;;28.48;;
32347;SDS011;18821;44.800;10.326;2023-03-21T11:09:58;42.13;;;27.23;;
32347;SDS011;18821;44.800;10.326;2023-03-21T11:12:30;44.58;;;26.83;;
32347;SDS011;18821;44.800;10.326;2023-03-21T11:18:00;38.20;;;26.67;;
32347;SDS011;18821;44.800;10.326;2023-03-21T11:20:46;39.72;;;26.33;;
32347;SDS011;18821;44.800;10.326;2023-03-21T11:23:34;39.42;;;28.33;;
32347;SDS011;18821;44.800;10.326;2023-03-21T11:26:09;37.67;;;24.67;;
32347;SDS011;18821;44.800;10.326;2023-03-21T11:28:40;37.08;;;25.20;;
32347;SDS011;18821;44.800;10.326;2023-03-21T11:31:09;38.13;;;25.73;;
32347;SDS011;18821;44.800;10.326;2023-03-21T11:33:36;37.25;;;25.80;;
32347;SDS011;18821;44.800;10.326;2023-03-21T11:38:56;44.08;;;28.05;;
32347;SDS011;18821;44.800;10.326;2023-03-21T11:41:30;41.30;;;29.45;;
32347;SDS011;18821;44.800;10.326;2023-03-21T11:43:58;42.10;;;27.40;;
32347;SDS011;18821;44.800;10.326;2023-03-21T11:46:27;39.22;;;27.48;;
32347;SDS011;18821;44.800;10.326;2023-03-21T11:48:55;43.03;;;28.50;;
32347;SDS011;18821;44.800;10.326;2023-03-21T12:02:38;35.88;;;23.58;;
32347;SDS011;18821;44.800;10.326;2023-03-21T12:05:17;38.33;;;26.30;;
32347;SDS011;18821;44.800;10.326;2023-03-21T12:08:35;38.10;;;26.08;;
32347;SDS011;18821;44.800;10.326;2023-03-21T12:13:57;37.63;;;25.15;;
32347;SDS011;18821;44.800;10.326;2023-03-21T12:22:20;41.83;;;24.55;;
32347;SDS011;18821;44.800;10.326;2023-03-21T12:25:04;36.83;;;22.10;;
32347;SDS011;18821;44.800;10.326;2023-03-21T12:33:44;50.45;;;25.05;;
32347;SDS011;18821;44.800;10.326;2023-03-21T12:36:29;36.05;;;23.45;;
32347;SDS011;18821;44.800;10.326;2023-03-21T12:39:25;31.50;;;22.95;;
32347;SDS011;18821;44.800;10.326;2023-03-21T12:44:48;29.02;;;21.80;;
32347;SDS011;18821;44.800;10.326;2023-03-21T12:47:27;32.42;;;20.08;;
32347;SDS011;18821;44.800;10.326;2023-03-21T12:49:58;32.58;;;21.63;;
32347;SDS011;18821;44.800;10.326;2023-03-21T12:52:39;27.80;;;19.67;;
32347;SDS011;18821;44.800;10.326;2023-03-21T12:55:24;29.83;;;20.60;;
32347;SDS011;18821;44.800;10.326;2023-03-21T12:58:05;26.92;;;18.92;;
32347;SDS011;18821;44.800;10.326;2023-03-21T13:03:11;28.80;;;21.05;;
32347;SDS011;18821;44.800;10.326;2023-03-21T13:05:52;29.75;;;20.60;;
32347;SDS011;18821;44.800;10.326;2023-03-21T13:10:58;32.45;;;22.48;;
32347;SDS011;18821;44.800;10.326;2023-03-21T13:16:23;27.10;;;20.67;;
32347;SDS011;18821;44.800;10.326;2023-03-21T13:19:17;31.65;;;21.92;;
32347;SDS011;18821;44.800;10.326;2023-03-21T13:22:10;34.53;;;21.55;;
32347;SDS011;18821;44.800;10.326;2023-03-21T13:24:47;28.63;;;20.40;;
32347;SDS011;18821;44.800;10.326;2023-03-21T13:27:52;30.80;;;19.30;;
32347;SDS011;18821;44.800;10.326;2023-03-21T13:30:25;28.15;;;19.23;;
32347;SDS011;18821;44.800;10.326;2023-03-21T13:33:03;66.60;;;23.08;;
32347;SDS011;18821;44.800;10.326;2023-03-21T13:43:34;31.05;;;20.30;;
32347;SDS011;18821;44.800;10.326;2023-03-21T13:46:11;34.60;;;20.55;;
32347;SDS011;18821;44.800;10.326;2023-03-21T14:01:58;27.23;;;18.80;;
32347;SDS011;18821;44.800;10.326;2023-03-21T14:04:45;33.33;;;19.17;;
32347;SDS011;18821;44.800;10.326;2023-03-21T14:07:20;47.08;;;20.75;;
32347;SDS011;18821;44.800;10.326;2023-03-21T14:09:51;22.52;;;17.15;;
32347;SDS011;18821;44.800;10.326;2023-03-21T14:12:21;22.67;;;16.08;;
32347;SDS011;18821;44.800;10.326;2023-03-21T14:15:00;26.83;;;17.80;;
32347;SDS011;18821;44.800;10.326;2023-03-21T14:17:33;26.75;;;16.55;;
32347;SDS011;18821;44.800;10.326;2023-03-21T14:22:45;24.95;;;16.65;;
32347;SDS011;18821;44.800;10.326;2023-03-21T14:25:13;26.05;;;16.42;;
32347;SDS011;18821;44.800;10.326;2023-03-21T14:27:42;22.50;;;16.10;;
32347;SDS011;18821;44.800;10.326;2023-03-21T14:30:20;24.50;;;16.10;;
32347;SDS011;18821;44.800;10.326;2023-03-21T14:32:51;25.52;;;15.85;;
32347;SDS011;18821;44.800;10.326;2023-03-21T14:35:19;23.58;;;16.15;;
32347;SDS011;18821;44.800;10.326;2023-03-21T14:37:46;22.67;;;15.90;;
32347;SDS011;18821;44.800;10.326;2023-03-21T14:42:49;20.67;;;14.77;;
32347;SDS011;18821;44.800;10.326;2023-03-21T14:47:54;24.77;;;15.85;;
32347;SDS011;18821;44.800;10.326;2023-03-21T14:53:00;24.50;;;15.90;;
32347;SDS011;18821;44.800;10.326;2023-03-21T14:55:26;24.00;;;16.45;;
32347;SDS011;18821;44.800;10.326;2023-03-21T14:57:53;27.48;;;15.35;;
32347;SDS011;18821;44.800;10.326;2023-03-21T15:00:29;23.90;;;15.73;;
32347;SDS011;18821;44.800;10.326;2023-03-21T15:02:56;23.02;;;15.48;;
32347;SDS011;18821;44.800;10.326;2023-03-21T15:08:35;23.38;;;15.75;;
32347;SDS011;18821;44.800;10.326;2023-03-21T15:10:57;20.95;;;16.38;;
32347;SDS011;18821;44.800;10.326;2023-03-21T15:13:36;19.95;;;14.50;;
32347;SDS011;18821;44.800;10.326;2023-03-21T15:16:10;22.45;;;15.80;;
32347;SDS011;18821;44.800;10.326;2023-03-21T15:18:39;20.88;;;15.70;;
32347;SDS011;18821;44.800;10.326;2023-03-21T15:21:10;22.90;;;15.00;;
32347;SDS011;18821;44.800;10.326;2023-03-21T15:23:44;24.45;;;15.27;;
32347;SDS011;18821;44.800;10.326;2023-03-21T15:26:16;21.27;;;15.25;;
32347;SDS011;18821;44.800;10.326;2023-03-21T15:28:46;24.50;;;15.43;;
32347;SDS011;18821;44.800;10.326;2023-03-21T15:31:20;23.38;;;14.38;;
32347;SDS011;18821;44.800;10.326;2023-03-21T15:33:53;22.35;;;16.15;;
32347;SDS011;18821;44.800;10.326;2023-03-21T15:39:15;25.73;;;14.95;;
32347;SDS011;18821;44.800;10.326;2023-03-21T15:44:46;22.08;;;14.05;;
32347;SDS011;18821;44.800;10.326;2023-03-21T15:50:09;19.95;;;13.13;;
32347;SDS011;18821;44.800;10.326;2023-03-21T15:52:53;21.63;;;14.45;;
32347;SDS011;18821;44.800;10.326;2023-03-21T15:55:26;18.63;;;13.77;;
32347;SDS011;18821;44.800;10.326;2023-03-21T15:57:58;22.35;;;13.45;;
32347;SDS011;18821;44.800;10.326;2023-03-21T16:00:37;19.13;;;13.05;;
32347;SDS011;18821;44.800;10.326;2023-03-21T16:03:15;18.85;;;12.52;;
32347;SDS011;18821;44.800;10.326;2023-03-21T16:08:43;18.95;;;12.63;;
32347;SDS011;18821;44.800;10.326;2023-03-21T16:11:23;17.92;;;12.55;;
32347;SDS011;18821;44.800;10.326;2023-03-21T16:13:53;21.33;;;13.27;;
32347;SDS011;18821;44.800;10.326;2023-03-21T16:16:21;17.23;;;12.07;;
32347;SDS011;18821;44.800;10.326;2023-03-21T16:18:48;19.02;;;11.98;;
32347;SDS011;18821;44.800;10.326;2023-03-21T16:21:15;20.42;;;13.15;;
32347;SDS011;18821;44.800;10.326;2023-03-21T16:23:43;19.38;;;12.63;;
32347;SDS011;18821;44.800;10.326;2023-03-21T16:26:11;17.67;;;12.05;;
32347;SDS011;18821;44.800;10.326;2023-03-21T16:28:38;24.92;;;12.63;;
32347;SDS011;18821;44.800;10.326;2023-03-21T16:31:04;18.25;;;13.32;;
32347;SDS011;18821;44.800;10.326;2023-03-21T16:33:30;19.27;;;12.80;;
32347;SDS011;18821;44.800;10.326;2023-03-21T16:35:56;20.58;;;13.02;;
32347;SDS011;18821;44.800;10.326;2023-03-21T16:38:22;20.85;;;13.60;;
32347;SDS011;18821;44.800;10.326;2023-03-21T16:40:49;21.08;;;13.63;;
32347;SDS011;18821;44.800;10.326;2023-03-21T16:43:16;21.85;;;13.45;;
32347;SDS011;18821;44.800;10.326;2023-03-21T16:45:42;23.25;;;13.95;;
32347;SDS011;18821;44.800;10.326;2023-03-21T16:48:09;26.48;;;14.52;;
32347;SDS011;18821;44.800;10.326;2023-03-21T16:50:41;27.60;;;14.65;;
32347;SDS011;18821;44.800;10.326;2023-03-21T16:53:10;22.70;;;14.55;;